KCHA

Lovell Field Airport

Chattanooga, Tennessee, USA
METAR KCHA 170406Z AUTO 36004KT 10SM OVC005 17/16 A3020 RMK AO2 DZE00 P0000 T01720156
Observed Flight Rules
Oct-17 @ 04:06 UTC (2 hours ago) Instrument Flight Rules
Wind Visibility Clouds
360° at 4 knots 10 miles
  • Overcast at 500' AGL
Temperatures Readings Precipitation
Current 17°C / 63°F
Dewpoint 16°C / 61°F
Humidity 94%
Altimeter 30.2" Hg
Pressure 1023 hPa
Elevation 210
Current Rain 0.005
METAR KCHA 170406Z AUTO 36004KT 10SM OVC005 17/16 A3020 RMK AO2 DZE00 P0000 T01720156
Observed Flight Rules
Oct-17 @ 04:06 UTC
(2 hours ago)
IFR
Wind Visibility
360° at 4 knots 10 miles
Clouds
  • Overcast at 500' AGL
Temperature Dewpoint
17°C / 63°F 16°C / 61°F
Humidity Altimeter Pressure
94% 30.2" Hg 1023 hPa
Current Rain
0.005